Aérodrome :
LOGIN :

S'inscrire | Disclaimer

   EN    FR    IT 

 










Légende :    VFR   VFR Marginal   IFR   IFR Intensif   IFR Très Intensif
Visi : 
Plafond : 
>= 8 km
>= 3000ft
5 à 8 km
1000 à 3000 ft
1500m à 5 km
500 à 1000 ft
800 à 1500m
200 à 500 ft
< 800m
< 200 ft
Symboles :   Orages  Brouillard  Fortes neiges  Fortes précipitations  Vent > 20 kt
SIGMETs :   Divers  Orages  Givrage  Turbulence  Onde Orograph.  Cendres Volcan.






- Altitude de l'aérodrome : 20 ft
- Code IATA : LSI


EGPB - Sumburgh

DERNIER METAR :
  • 290920Z 32013KT 9999 VCSH SCT013 BKN023 05/02 Q1043

METARs EXPIRÉS :
  • 290820Z 29016G26KT 9999 VCSH BKN028 06/00 Q1043
  • 290750Z AUTO 27015KT 9999 OVC032/// 05/M00 Q1044
  • 290720Z AUTO 28013KT 9999 BKN035/// 05/M02 Q1044
  • 290650Z AUTO 30010KT 9999 BKN037/// 04/M03 Q1044

TAF TAF EGPB
Valide du 29 à 09h jusqu'au 29 à 18h UTC


290757Z 2909/2918 28015KT 9999 BKN045
PROB30
TEMPO 2912/2918 30018G28KT 5000 SHRA BKN012



MET'MAP, la Météo Aéronautique d'un coup d'oeil ! - Copyright ORBIFLY Décembre 2007 - Disclaimer

ORBIFLY MET'MAP TEAM :

Programmation & Développement : Alexandra Zaïnal
Sur une idée originale de : Baudouin d'Aumeries
Assistance à la programmation : Marc-Olivier Méhu
Soutien technique & logistique : Manuel Goepfert

Contact : metmap@orbifly.com




SOURCES & CREDITS :

   NOAA